Frontier Kotobuki — 3EXC5 — position and weather

sailwx.info

Track history (hours):
 
Tides and Currents Weather Stations Pressure Air Temp Water Temp Dewpoint Dewpoint Depression Visibility Wind Speed Wind Dir Waves Ship Positions

Frontier Kotobuki

Last reported at 2016-May-02 06:24 UTC. Time now 2016-May-28 08:04 UTC.
Position N 01°13' E 103°32'.
Warning: this ship's position is 26 days out of date.

Length 290 m; draft 17.2 m.

Type: Cargo ship. MMSI: 355036000.

Date/timePositionNaut miles runAvg speedWind from/ knotsBaromVisibWave heightAir tempDewpointWater temp
2016-May-02 06:24N 01°13' E 103°32'1011.4
2016-May-02 05:33N 01°10' E 103°41'8 8.1
2016-May-02 04:33N 01°11' E 103°49'1010.1
2016-May-02 03:33N 01°15' E 103°59'3 3.2
2016-May-02 02:34N 01°17' E 104°01'0 0.0
2016-May-02 01:31N 01°17' E 104°01'0 0.0
2016-May-02 00:31N 01°17' E 104°01'0 0.2
2016-May-01 22:34N 01°17' E 104°01'0 0.0
2016-May-01 21:34N 01°17' E 104°01'0 0.0
2016-May-01 19:13N 01°17' E 104°01'0 0.0
2016-May-01 18:31N 01°17' E 104°01'0 0.0
2016-May-01 17:31N 01°17' E 104°01'0 0.0
2016-May-01 16:13N 01°17' E 104°01'0 0.0
2016-May-01 15:31N 01°17' E 104°01'0 0.0
2016-May-01 14:34N 01°17' E 104°01'0 0.1
2016-May-01 13:34N 01°17' E 104°01'0 0.1
2016-May-01 12:31N 01°17' E 104°01'0 0.1
2016-May-01 11:25N 01°17' E 104°01'0 0.1
2016-May-01 10:28N 01°17' E 104°01'1 0.9
2016-May-01 09:33N 01°16' E 104°01'5 5.2
2016-May-01 08:33N 01°17' E 104°06'  
Track history (hours):
 
Tides and Currents Weather Stations Pressure Air Temp Water Temp Dewpoint Dewpoint Depression Visibility Wind Speed Wind Dir Waves Ship Positions

Frontier Kotobuki

Last reported at 2016-May-02 06:24 UTC. Time now 2016-May-28 08:04 UTC.
Position N 01°13' E 103°32'.
Warning: this ship's position is 26 days out of date.

Length 290 m; draft 17.2 m.

Type: Cargo ship. MMSI: 355036000.

Date/timePositionNaut miles runAvg speedWind from/ knotsBaromVisibWave heightAir tempDewpointWater temp
2016-May-02 06:24N 01°13' E 103°32'1011.4
2016-May-02 05:33N 01°10' E 103°41'8 8.1
2016-May-02 04:33N 01°11' E 103°49'1010.1
2016-May-02 03:33N 01°15' E 103°59'3 3.2
2016-May-02 02:34N 01°17' E 104°01'0 0.0
2016-May-02 01:31N 01°17' E 104°01'0 0.0
2016-May-02 00:31N 01°17' E 104°01'0 0.2
2016-May-01 22:34N 01°17' E 104°01'0 0.0
2016-May-01 21:34N 01°17' E 104°01'0 0.0
2016-May-01 19:13N 01°17' E 104°01'0 0.0
2016-May-01 18:31N 01°17' E 104°01'0 0.0
2016-May-01 17:31N 01°17' E 104°01'0 0.0
2016-May-01 16:13N 01°17' E 104°01'0 0.0
2016-May-01 15:31N 01°17' E 104°01'0 0.0
2016-May-01 14:34N 01°17' E 104°01'0 0.1
2016-May-01 13:34N 01°17' E 104°01'0 0.1
2016-May-01 12:31N 01°17' E 104°01'0 0.1
2016-May-01 11:25N 01°17' E 104°01'0 0.1
2016-May-01 10:28N 01°17' E 104°01'1 0.9
2016-May-01 09:33N 01°16' E 104°01'5 5.2
2016-May-01 08:33N 01°17' E 104°06'  

Dump ship's entire track history